Time;durP1;ratioP1;P1;durP2;ratioP2;P2;SDS_P1;SDS_P2;PMS_P1;PMS_P2;Temp;Humidity;BMP_temperature;BMP_pressure;BME280_temperature;BME280_humidity;BME280_pressure;Samples;Min_cycle;Max_cycle;Signal;HPM_P1;HPM_P2
2023/03/20 00:02:47;;;;;;;4.25;3.05;;;22.30;65.70;;;;;;5091523;28;20281;-68
2023/03/20 00:05:35;;;;;;;3.17;2.60;;;22.20;65.50;;;;;;5091716;28;20711;-69
2023/03/20 00:08:27;;;;;;;2.85;2.40;;;22.20;65.60;;;;;;5090474;28;20207;-68
2023/03/20 00:11:29;;;;;;;2.92;2.72;;;22.10;65.70;;;;;;5091068;28;20230;-68
2023/03/20 00:14:21;;;;;;;3.03;2.75;;;22.10;65.60;;;;;;5091087;28;20198;-70
2023/03/20 00:17:11;;;;;;;3.50;2.35;;;22.10;65.80;;;;;;5091120;28;20283;-70
2023/03/20 00:19:59;;;;;;;2.67;2.45;;;22.10;65.80;;;;;;5091046;28;20356;-67
2023/03/20 00:22:47;;;;;;;4.60;2.90;;;22.10;65.80;;;;;;5091271;28;20200;-69
2023/03/20 00:25:38;;;;;;;3.50;2.78;;;22.00;65.70;;;;;;5090918;28;20196;-67
2023/03/20 00:28:36;;;;;;;3.35;2.45;;;22.00;65.80;;;;;;5090688;28;20648;-69
2023/03/20 00:31:26;;;;;;;2.55;2.35;;;22.00;65.90;;;;;;5090484;28;20578;-69
2023/03/20 00:34:18;;;;;;;3.42;2.80;;;22.00;65.90;;;;;;5090987;28;20341;-69
2023/03/20 00:37:06;;;;;;;3.55;2.50;;;22.00;65.90;;;;;;5090547;28;20684;-70
2023/03/20 00:39:54;;;;;;;2.45;2.25;;;22.00;66.00;;;;;;5089774;28;20231;-69
2023/03/20 00:42:45;;;;;;;3.25;2.70;;;22.10;65.90;;;;;;5090669;28;20681;-69
2023/03/20 00:45:35;;;;;;;2.60;2.40;;;22.10;65.80;;;;;;5091718;28;20224;-69
2023/03/20 00:48:23;;;;;;;3.75;2.58;;;22.10;65.80;;;;;;5094087;28;20196;-69
2023/03/20 00:51:11;;;;;;;2.60;2.40;;;22.20;65.70;;;;;;5094477;28;20224;-69
2023/03/20 00:53:59;;;;;;;2.90;2.40;;;22.20;65.70;;;;;;5094337;28;20799;-68
2023/03/20 00:56:54;;;;;;;2.67;2.47;;;22.30;65.70;;;;;;5094215;28;20408;-67
2023/03/20 00:59:54;;;;;;;2.63;2.42;;;22.30;65.60;;;;;;5092921;28;20254;-69
2023/03/20 01:02:42;;;;;;;2.40;2.20;;;22.30;65.50;;;;;;5093829;28;20192;-70
2023/03/20 01:05:30;;;;;;;3.35;2.80;;;22.30;65.60;;;;;;5094070;28;20222;-69
2023/03/20 01:08:19;;;;;;;2.72;2.33;;;22.30;65.60;;;;;;5093985;28;20199;-69
2023/03/20 01:11:11;;;;;;;3.45;3.15;;;22.30;65.60;;;;;;5093228;28;20212;-68
2023/03/20 01:13:59;;;;;;;3.20;2.50;;;22.20;65.50;;;;;;5093595;28;20671;-69
2023/03/20 01:16:49;;;;;;;3.47;2.63;;;22.20;65.60;;;;;;5094448;28;20716;-69
2023/03/20 01:19:37;;;;;;;3.42;2.80;;;22.20;65.60;;;;;;5093301;28;20292;-69
2023/03/20 01:22:25;;;;;;;2.90;2.70;;;22.10;65.50;;;;;;5092915;28;20726;-68
2023/03/20 01:25:13;;;;;;;2.92;2.45;;;22.10;65.80;;;;;;5093618;28;20261;-69
2023/03/20 01:28:02;;;;;;;2.92;2.42;;;22.10;65.80;;;;;;5093061;28;20287;-68
2023/03/20 01:30:51;;;;;;;2.70;2.50;;;22.00;65.70;;;;;;5093519;28;20227;-68
2023/03/20 01:33:40;;;;;;;2.97;2.30;;;22.00;65.90;;;;;;5093334;28;20289;-67
2023/03/20 01:36:28;;;;;;;3.30;3.00;;;22.00;66.00;;;;;;5093466;28;20285;-68
2023/03/20 01:39:17;;;;;;;3.80;2.80;;;21.90;75.60;;;;;;5093330;28;20330;-67
2023/03/20 01:42:06;;;;;;;2.50;2.30;;;22.00;66.10;;;;;;5093086;28;20200;-66
2023/03/20 01:44:55;;;;;;;2.85;2.45;;;22.00;66.00;;;;;;5093172;28;20215;-68
2023/03/20 01:47:43;;;;;;;2.67;2.47;;;22.00;66.00;;;;;;5093268;28;20242;-70
2023/03/20 01:50:33;;;;;;;2.95;2.35;;;22.00;65.90;;;;;;5093324;28;20303;-68
2023/03/20 01:53:25;;;;;;;3.05;2.72;;;22.10;66.00;;;;;;5093270;28;20253;-67
2023/03/20 01:56:15;;;;;;;2.80;2.40;;;22.10;65.90;;;;;;5092766;28;20338;-67
2023/03/20 01:59:08;;;;;;;2.92;2.70;;;22.10;65.80;;;;;;5092685;28;20337;-66
2023/03/20 02:01:56;;;;;;;2.85;2.65;;;22.10;65.70;;;;;;5093323;28;20246;-67
2023/03/20 02:04:47;;;;;;;3.05;2.50;;;22.20;65.80;;;;;;5093421;28;20255;-67
2023/03/20 02:07:39;;;;;;;3.88;2.40;;;22.10;65.70;;;;;;5092977;28;20207;-68
2023/03/20 02:10:27;;;;;;;2.55;2.35;;;22.20;65.80;;;;;;5093334;28;20597;-69
2023/03/20 02:13:16;;;;;;;2.60;1.92;;;22.10;65.80;;;;;;5092651;28;20204;-67
2023/03/20 02:16:07;;;;;;;2.67;2.47;;;22.10;65.70;;;;;;5092447;28;20326;-69
2023/03/20 02:18:58;;;;;;;4.03;2.60;;;22.10;65.70;;;;;;5091995;28;20728;-69
2023/03/20 02:22:13;;;;;;;4.65;2.80;;;22.10;65.70;;;;;;5092377;28;20247;-67
2023/03/20 02:25:35;;;;;;;2.45;2.33;;;22.10;65.80;;;;;;5088476;28;20334;-69
2023/03/20 02:29:09;;;;;;;2.65;2.45;;;22.10;65.80;;;;;;5098247;28;20677;-69
2023/03/20 02:32:26;;;;;;;2.72;2.38;;;22.00;65.90;;;;;;5091540;28;20191;-67
2023/03/20 02:35:32;;;;;;;2.50;2.30;;;22.00;65.90;;;;;;5091419;28;20196;-67
2023/03/20 02:38:40;;;;;;;2.40;2.20;;;21.90;65.90;;;;;;5091819;28;20208;-68
2023/03/20 02:41:32;;;;;;;2.75;2.55;;;22.00;66.10;;;;;;5091255;28;20295;-68
2023/03/20 02:44:25;;;;;;;2.63;2.40;;;22.00;66.10;;;;;;5091587;28;20200;-69
2023/03/20 02:47:21;;;;;;;2.65;2.45;;;22.00;66.10;;;;;;5091671;28;20221;-68
2023/03/20 02:50:16;;;;;;;2.40;2.20;;;22.00;66.10;;;;;;5092573;28;20289;-68
2023/03/20 02:53:15;;;;;;;2.75;2.40;;;22.00;66.10;;;;;;5090473;28;20338;-70
2023/03/20 02:56:12;;;;;;;2.90;2.70;;;22.00;65.90;;;;;;5091384;28;20284;-67
2023/03/20 02:59:07;;;;;;;2.67;2.45;;;22.00;66.10;;;;;;5091238;28;20283;-68
2023/03/20 03:02:04;;;;;;;2.30;2.15;;;22.00;66.00;;;;;;5091178;28;20196;-67
2023/03/20 03:04:57;;;;;;;2.83;2.55;;;22.10;66.00;;;;;;5090728;28;20301;-68
2023/03/20 03:07:46;;;;;;;2.70;2.50;;;22.10;65.90;;;;;;5090937;28;20289;-69
2023/03/20 03:10:37;;;;;;;2.80;2.60;;;22.10;65.90;;;;;;5091260;28;20829;-66
2023/03/20 03:13:31;;;;;;;2.95;2.75;;;22.10;66.00;;;;;;5092089;28;20644;-68
2023/03/20 03:16:22;;;;;;;2.60;2.40;;;22.10;65.90;;;;;;5091387;28;20219;-67
2023/03/20 03:19:15;;;;;;;2.92;2.72;;;21.90;77.60;;;;;;5091404;28;20196;-69
2023/03/20 03:22:04;;;;;;;2.78;2.58;;;22.00;66.00;;;;;;5091070;28;20274;-66
2023/03/20 03:24:54;;;;;;;2.90;2.70;;;22.00;65.90;;;;;;5090592;28;20289;-71
2023/03/20 03:27:44;;;;;;;2.30;2.10;;;22.00;66.00;;;;;;5091110;28;20206;-69
2023/03/20 03:30:38;;;;;;;2.33;1.92;;;22.00;66.10;;;;;;5091470;28;20711;-68
2023/03/20 03:33:29;;;;;;;3.28;2.22;;;22.00;66.10;;;;;;5090665;28;20228;-68
2023/03/20 03:36:27;;;;;;;3.42;2.35;;;21.90;66.00;;;;;;5091481;28;20329;-68
2023/03/20 03:39:25;;;;;;;2.90;2.70;;;22.10;76.20;;;;;;5090640;28;20682;-69
2023/03/20 03:42:20;;;;;;;2.95;2.58;;;21.80;66.10;;;;;;5091181;28;20739;-69
2023/03/20 03:45:12;;;;;;;3.05;2.85;;;21.90;66.30;;;;;;5090937;28;20301;-67
2023/03/20 03:48:07;;;;;;;2.63;2.47;;;21.90;66.30;;;;;;5090785;28;20231;-67
2023/03/20 03:51:00;;;;;;;2.72;2.60;;;21.90;66.30;;;;;;5091104;28;20309;-68
2023/03/20 03:53:54;;;;;;;2.97;2.78;;;21.90;66.20;;;;;;5091391;28;20199;-68
2023/03/20 03:56:47;;;;;;;3.00;2.80;;;21.90;66.20;;;;;;5091548;28;20335;-68
2023/03/20 03:59:38;;;;;;;2.47;2.38;;;22.00;66.30;;;;;;5091173;28;20330;-68
2023/03/20 04:02:26;;;;;;;4.63;3.03;;;22.00;66.20;;;;;;5090802;28;20192;-68
2023/03/20 04:05:18;;;;;;;2.47;2.33;;;22.00;66.20;;;;;;5091720;28;20313;-67
2023/03/20 04:08:07;;;;;;;3.22;2.60;;;22.00;66.10;;;;;;5091782;28;20684;-67
2023/03/20 04:10:55;;;;;;;3.20;2.90;;;22.00;66.10;;;;;;5089757;28;20325;-65
2023/03/20 04:13:43;;;;;;;2.53;2.33;;;22.00;66.20;;;;;;5089661;28;20196;-68
2023/03/20 04:16:31;;;;;;;3.50;3.20;;;22.00;66.00;;;;;;5090646;28;20282;-68
2023/03/20 04:19:19;;;;;;;2.53;2.33;;;22.20;80.40;;;;;;5089871;28;20204;-68
2023/03/20 04:22:09;;;;;;;3.08;2.83;;;22.00;66.10;;;;;;5095171;28;20288;-67
2023/03/20 04:24:57;;;;;;;4.07;2.55;;;22.00;66.00;;;;;;5094736;28;20200;-66
2023/03/20 04:27:45;;;;;;;3.70;2.80;;;22.00;66.90;;;;;;5094210;28;20240;-66
2023/03/20 04:30:33;;;;;;;2.63;2.42;;;22.00;66.10;;;;;;5094818;28;20699;-67
2023/03/20 04:33:21;;;;;;;3.33;2.97;;;22.00;66.20;;;;;;5093978;28;20724;-68
2023/03/20 04:36:10;;;;;;;4.82;4.05;;;21.90;66.10;;;;;;5093983;28;20196;-68
2023/03/20 04:39:00;;;;;;;2.67;2.17;;;21.90;66.20;;;;;;5094161;28;20216;-69
2023/03/20 04:41:48;;;;;;;2.70;2.45;;;21.90;66.30;;;;;;5093702;28;20688;-68
2023/03/20 04:44:36;;;;;;;3.28;2.97;;;21.90;66.30;;;;;;5093338;28;20672;-68
2023/03/20 04:47:24;;;;;;;2.90;2.50;;;21.90;66.30;;;;;;5093836;28;20220;-66
2023/03/20 04:50:12;;;;;;;2.72;2.53;;;21.90;66.50;;;;;;5093745;28;20298;-66
2023/03/20 04:53:01;;;;;;;3.33;3.03;;;21.90;66.40;;;;;;5094013;28;20207;-67
2023/03/20 04:55:50;;;;;;;3.08;2.85;;;21.90;66.40;;;;;;5093686;28;20204;-68
2023/03/20 04:58:39;;;;;;;6.68;3.10;;;21.90;66.40;;;;;;5093864;28;20261;-66
2023/03/20 05:01:27;;;;;;;3.35;2.85;;;22.50;66.90;;;;;;5094387;28;20713;-68
2023/03/20 05:04:15;;;;;;;3.55;3.25;;;21.90;66.30;;;;;;5086180;28;20680;-67
2023/03/20 05:07:04;;;;;;;2.95;2.42;;;21.90;66.20;;;;;;5093461;28;20224;-65
2023/03/20 05:09:52;;;;;;;4.32;2.90;;;22.00;66.20;;;;;;5092803;28;20303;-67
2023/03/20 05:12:41;;;;;;;3.58;3.28;;;22.00;66.20;;;;;;5093681;28;20334;-68
2023/03/20 05:15:30;;;;;;;3.05;2.85;;;22.00;66.10;;;;;;5094161;28;20200;-67
2023/03/20 05:18:18;;;;;;;3.25;2.70;;;22.00;66.20;;;;;;5094091;28;20216;-67
2023/03/20 05:21:07;;;;;;;3.38;2.95;;;22.00;66.20;;;;;;5092830;28;20696;-67
2023/03/20 05:23:55;;;;;;;3.35;3.05;;;22.00;66.20;;;;;;5093087;28;20614;-66
2023/03/20 05:26:43;;;;;;;4.45;3.63;;;22.00;66.20;;;;;;5093788;28;20829;-66
2023/03/20 05:29:33;;;;;;;2.90;2.70;;;21.90;66.20;;;;;;5092758;28;20256;-66
2023/03/20 05:32:21;;;;;;;2.92;2.72;;;21.90;66.10;;;;;;5092844;28;20278;-66
2023/03/20 05:35:09;;;;;;;3.10;2.90;;;21.90;66.20;;;;;;5093547;28;20282;-69
2023/03/20 05:37:58;;;;;;;3.45;3.15;;;21.90;66.40;;;;;;5092823;28;20285;-68
2023/03/20 05:40:46;;;;;;;3.10;2.75;;;21.90;66.60;;;;;;5092790;28;20593;-67
2023/03/20 05:43:34;;;;;;;4.90;3.28;;;21.80;66.40;;;;;;5093060;28;20670;-67
2023/03/20 05:46:25;;;;;;;4.00;3.67;;;23.20;67.80;;;;;;5092738;28;20697;-68
2023/03/20 05:49:13;;;;;;;3.30;3.00;;;21.70;79.30;;;;;;5093109;28;20206;-69
2023/03/20 05:52:01;;;;;;;4.60;3.75;;;21.80;66.10;;;;;;5074911;22;20721;-66
2023/03/20 05:54:49;;;;;;;3.50;3.20;;;21.80;66.90;;;;;;5054076;28;20677;-66
2023/03/20 05:57:37;;;;;;;5.68;4.00;;;21.80;66.90;;;;;;5054061;28;20272;-67
2023/03/20 06:00:26;;;;;;;4.38;3.97;;;21.80;66.90;;;;;;5058239;28;20255;-66
2023/03/20 06:03:15;;;;;;;4.78;3.67;;;21.70;66.80;;;;;;5072728;28;20287;-66
2023/03/20 06:06:04;;;;;;;4.03;3.72;;;21.70;66.90;;;;;;5092130;28;20197;-66
2023/03/20 06:08:52;;;;;;;5.05;4.55;;;21.70;66.80;;;;;;5090280;28;20203;-66
2023/03/20 06:11:40;;;;;;;4.07;3.70;;;21.70;66.90;;;;;;5088604;28;20225;-66
2023/03/20 06:14:28;;;;;;;5.00;4.60;;;21.70;66.80;;;;;;5089665;28;20185;-68
2023/03/20 06:17:16;;;;;;;5.95;5.07;;;21.70;66.90;;;;;;5073851;28;20293;-66
2023/03/20 06:20:07;;;;;;;4.97;4.38;;;21.80;82.30;;;;;;5072515;28;20205;-66
2023/03/20 06:22:55;;;;;;;5.50;5.00;;;21.70;67.00;;;;;;5072433;28;20342;-66
2023/03/20 06:25:43;;;;;;;5.30;4.65;;;23.00;68.50;;;;;;5073014;28;20228;-66
2023/03/20 06:28:31;;;;;;;7.65;6.40;;;21.50;66.80;;;;;;5072374;28;20720;-66
2023/03/20 06:31:19;;;;;;;4.82;4.32;;;21.50;66.80;;;;;;5072951;28;20319;-66
2023/03/20 06:34:07;;;;;;;5.95;5.28;;;21.70;66.80;;;;;;5072313;28;20233;-66
2023/03/20 06:36:57;;;;;;;12.70;9.13;;;21.70;66.90;;;;;;5072632;28;20394;-67
2023/03/20 06:39:45;;;;;;;8.63;6.68;;;21.70;67.10;;;;;;5071736;28;20281;-66
2023/03/20 06:42:33;;;;;;;7.75;5.90;;;21.60;66.90;;;;;;5072005;28;20200;-67
2023/03/20 06:45:22;;;;;;;7.50;6.03;;;21.70;66.90;;;;;;5071916;28;20197;-66
2023/03/20 06:48:10;;;;;;;7.55;5.45;;;21.70;66.90;;;;;;5073652;28;20290;-66
2023/03/20 06:50:58;;;;;;;6.80;6.00;;;21.60;66.70;;;;;;5071561;28;20255;-66
2023/03/20 06:53:48;;;;;;;7.93;6.80;;;21.60;66.90;;;;;;5071259;28;20259;-66
2023/03/20 06:56:36;;;;;;;7.47;6.13;;;21.60;66.90;;;;;;5072985;28;20346;-67
2023/03/20 06:59:25;;;;;;;8.23;5.85;;;21.60;66.80;;;;;;5073496;28;20279;-66
2023/03/20 07:02:15;;;;;;;8.95;6.03;;;21.60;66.90;;;;;;5066178;28;20243;-67
2023/03/20 07:05:03;;;;;;;7.43;6.60;;;21.60;66.90;;;;;;5071908;28;20212;-66
2023/03/20 07:07:51;;;;;;;9.27;5.70;;;21.60;67.10;;;;;;5055974;28;20626;-67
2023/03/20 07:10:41;;;;;;;7.78;5.35;;;21.50;67.00;;;;;;5066656;28;20217;-66
2023/03/20 07:13:29;;;;;;;8.43;6.60;;;21.50;67.10;;;;;;5071697;28;20279;-66
2023/03/20 07:16:17;;;;;;;31.20;9.60;;;21.40;67.10;;;;;;5071136;28;20284;-66
2023/03/20 07:19:05;;;;;;;16.35;7.20;;;21.40;67.10;;;;;;5071513;28;20200;-67
2023/03/20 07:22:00;;;;;;;11.18;6.43;;;21.40;67.10;;;;;;5055508;28;20283;-66
2023/03/20 07:24:48;;;;;;;5.80;4.95;;;21.40;67.10;;;;;;5052896;28;20647;-66
2023/03/20 07:27:38;;;;;;;8.00;6.43;;;21.40;67.70;;;;;;5052542;28;20616;-66
2023/03/20 07:30:26;;;;;;;9.38;5.60;;;21.40;67.10;;;;;;5061867;28;20662;-66
2023/03/20 07:33:15;;;;;;;8.77;5.78;;;21.50;67.00;;;;;;5063095;28;20759;-66
2023/03/20 07:36:03;;;;;;;11.18;7.90;;;21.50;67.10;;;;;;5061558;28;20204;-66
2023/03/20 07:38:51;;;;;;;9.80;4.45;;;21.50;67.10;;;;;;5052235;28;20229;-66
2023/03/20 07:41:40;;;;;;;8.88;5.40;;;21.50;66.90;;;;;;5052458;28;20350;-66
2023/03/20 07:44:29;;;;;;;13.98;5.60;;;21.60;67.00;;;;;;5052339;28;20197;-66
2023/03/20 07:47:17;;;;;;;8.40;5.30;;;21.60;66.90;;;;;;5050379;28;20753;-66
2023/03/20 07:50:06;;;;;;;8.80;6.00;;;21.90;82.30;;;;;;5052221;28;20686;-67
2023/03/20 07:52:55;;;;;;;9.00;5.45;;;21.70;66.90;;;;;;5050651;28;20202;-66
2023/03/20 07:55:44;;;;;;;7.43;5.70;;;21.70;66.70;;;;;;5055435;28;20223;-66
2023/03/20 07:58:32;;;;;;;8.95;6.68;;;21.70;66.80;;;;;;5073082;28;20196;-66
2023/03/20 08:01:22;;;;;;;10.20;6.00;;;21.70;66.90;;;;;;5074358;28;20289;-66
2023/03/20 08:04:10;;;;;;;7.88;6.05;;;21.70;66.90;;;;;;5075478;28;20208;-66
2023/03/20 08:06:58;;;;;;;10.00;6.60;;;21.60;66.90;;;;;;5075563;28;20202;-66
2023/03/20 08:09:46;;;;;;;10.98;6.32;;;21.60;67.00;;;;;;5074367;28;20247;-66
2023/03/20 08:12:34;;;;;;;8.25;6.85;;;21.60;66.90;;;;;;5069034;28;20228;-66
2023/03/20 08:15:22;;;;;;;10.20;5.97;;;21.50;66.90;;;;;;5074499;28;20293;-66
2023/03/20 08:18:12;;;;;;;12.63;5.22;;;21.50;66.80;;;;;;5074319;28;20196;-66
2023/03/20 08:21:00;;;;;;;12.48;8.15;;;21.50;66.70;;;;;;5074349;28;20304;-66
2023/03/20 08:23:48;;;;;;;8.93;6.22;;;21.50;66.80;;;;;;5074354;28;20287;-66
2023/03/20 08:26:36;;;;;;;6.68;4.60;;;21.50;66.80;;;;;;5075746;28;20262;-66
2023/03/20 08:29:25;;;;;;;9.43;6.05;;;21.60;66.90;;;;;;5074039;28;20242;-68
2023/03/20 08:32:13;;;;;;;10.13;5.22;;;21.60;66.80;;;;;;5073453;28;20357;-66
2023/03/20 08:35:02;;;;;;;7.00;3.83;;;21.60;66.70;;;;;;5074615;28;20329;-66
2023/03/20 08:37:51;;;;;;;6.18;4.03;;;21.70;66.60;;;;;;5075314;28;20197;-66
2023/03/20 08:40:40;;;;;;;7.28;5.05;;;21.70;66.50;;;;;;5074450;28;20274;-66
2023/03/20 08:43:28;;;;;;;6.43;4.88;;;21.80;66.50;;;;;;5073786;28;20326;-66
2023/03/20 08:46:17;;;;;;;8.45;5.00;;;21.80;66.30;;;;;;5075127;28;20226;-66
2023/03/20 08:49:06;;;;;;;6.80;4.15;;;21.90;66.50;;;;;;5073546;28;20224;-67
2023/03/20 08:51:55;;;;;;;6.72;4.75;;;21.80;66.30;;;;;;5073032;28;20256;-66
2023/03/20 08:54:43;;;;;;;9.77;5.57;;;21.90;66.40;;;;;;5075262;28;20270;-66
2023/03/20 08:57:31;;;;;;;7.30;5.60;;;21.90;66.30;;;;;;5066047;28;20284;-66
2023/03/20 09:00:20;;;;;;;8.40;5.30;;;21.90;66.30;;;;;;5054352;28;20308;-67
2023/03/20 09:03:13;;;;;;;7.40;4.57;;;21.90;66.60;;;;;;5054173;28;20751;-67
2023/03/20 09:06:04;;;;;;;6.38;4.25;;;21.90;66.60;;;;;;5063077;28;20586;-67
2023/03/20 09:08:56;;;;;;;7.22;5.15;;;21.90;67.00;;;;;;5070014;28;20271;-67
2023/03/20 09:11:44;;;;;;;6.65;4.97;;;21.80;66.80;;;;;;5071791;28;20221;-67
2023/03/20 09:14:32;;;;;;;6.57;5.00;;;21.80;66.80;;;;;;5073282;28;20200;-67
2023/03/20 09:17:20;;;;;;;10.30;5.60;;;21.80;67.00;;;;;;5074038;28;20684;-67
2023/03/20 09:20:10;;;;;;;5.75;4.18;;;22.00;82.60;;;;;;5074078;28;20270;-67
2023/03/20 09:22:58;;;;;;;7.70;5.40;;;21.70;67.10;;;;;;5073533;28;20283;-67
2023/03/20 09:25:48;;;;;;;9.27;4.70;;;21.70;67.10;;;;;;5073733;28;20204;-67
2023/03/20 09:28:36;;;;;;;7.00;4.30;;;21.70;67.10;;;;;;5072995;28;20216;-68
2023/03/20 09:31:24;;;;;;;18.58;4.85;;;21.70;66.90;;;;;;5066653;28;20239;-67
2023/03/20 09:34:12;;;;;;;10.57;3.47;;;21.70;66.70;;;;;;5074140;28;20219;-67
2023/03/20 09:37:01;;;;;;;4.65;3.55;;;21.80;66.80;;;;;;5074088;28;20284;-68
2023/03/20 09:39:50;;;;;;;44.33;8.77;;;21.80;66.60;;;;;;5074069;28;20199;-67
2023/03/20 09:42:51;;;;;;;50.35;8.63;;;21.80;66.60;;;;;;5073117;28;20216;-67
2023/03/20 09:45:50;;;;;;;17.52;5.55;;;21.90;66.40;;;;;;5074277;28;20625;-66
2023/03/20 09:48:44;;;;;;;5.35;3.72;;;22.00;66.30;;;;;;5073579;28;20338;-67
2023/03/20 09:51:38;;;;;;;31.77;4.55;;;22.00;66.80;;;;;;5072441;28;20598;-67
2023/03/20 09:54:28;;;;;;;7.18;3.45;;;22.00;65.90;;;;;;5073421;28;20203;-67
2023/03/20 09:57:25;;;;;;;8.38;4.10;;;22.00;65.90;;;;;;5065910;28;20571;-68
2023/03/20 10:00:19;;;;;;;8.13;4.30;;;22.00;66.10;;;;;;5055213;28;20304;-67
2023/03/20 10:03:18;;;;;;;7.10;3.97;;;22.00;66.00;;;;;;5055144;28;20220;-67
2023/03/20 10:06:12;;;;;;;5.78;3.83;;;22.00;65.90;;;;;;5054548;28;20201;-67
2023/03/20 10:09:00;;;;;;;4.95;3.03;;;22.00;65.90;;;;;;5054313;28;20348;-67
2023/03/20 10:12:17;;;;;;;6.15;3.47;;;22.00;65.90;;;;;;5055460;28;20230;-66
2023/03/20 10:15:15;;;;;;;4.85;3.05;;;22.00;65.90;;;;;;5069808;28;20689;-67
2023/03/20 10:18:15;;;;;;;8.40;3.50;;;21.90;65.80;;;;;;5068244;28;20203;-67
2023/03/20 10:21:06;;;;;;;8.32;4.05;;;21.90;65.90;;;;;;5072884;28;20251;-68
2023/03/20 10:24:02;;;;;;;5.60;3.38;;;21.90;66.10;;;;;;5074008;28;20197;-67
2023/03/20 10:26:53;;;;;;;7.50;3.20;;;21.90;65.90;;;;;;5072888;28;20204;-67
2023/03/20 10:29:51;;;;;;;4.50;2.97;;;21.80;65.90;;;;;;5069335;28;20703;-67
2023/03/20 10:32:46;;;;;;;7.88;4.28;;;21.90;66.10;;;;;;5066041;28;20888;-67
2023/03/20 10:35:42;;;;;;;4.70;2.97;;;21.90;66.00;;;;;;5062742;28;20197;-68
2023/03/20 10:38:38;;;;;;;6.68;3.08;;;21.90;66.00;;;;;;5071864;28;20196;-67
2023/03/20 10:41:30;;;;;;;5.60;3.05;;;21.90;66.00;;;;;;5072257;28;20221;-67
2023/03/20 10:44:27;;;;;;;5.13;3.17;;;22.00;66.00;;;;;;5055767;28;20204;-69
2023/03/20 10:47:20;;;;;;;6.25;3.35;;;22.00;65.80;;;;;;5055661;28;20198;-67
2023/03/20 10:50:15;;;;;;;3.65;3.33;;;21.80;79.80;;;;;;5055794;28;20220;-68
2023/03/20 10:53:06;;;;;;;4.85;3.58;;;22.00;65.70;;;;;;5056650;28;20198;-68
2023/03/20 10:55:57;;;;;;;3.92;3.38;;;22.10;65.60;;;;;;5059575;28;20204;-67
2023/03/20 10:58:48;;;;;;;7.90;2.88;;;22.10;65.50;;;;;;5077777;28;20200;-68
2023/03/20 11:01:36;;;;;;;13.05;3.90;;;22.10;65.40;;;;;;5076869;28;20280;-67
2023/03/20 11:04:24;;;;;;;9.55;4.03;;;22.10;65.40;;;;;;5075150;28;20192;-67
2023/03/20 11:07:22;;;;;;;9.93;3.42;;;22.10;65.40;;;;;;5069378;28;20229;-68
2023/03/20 11:10:15;;;;;;;5.95;3.33;;;21.90;79.40;;;;;;5065257;28;20217;-68
2023/03/20 11:13:15;;;;;;;6.50;4.13;;;22.10;65.30;;;;;;5070975;28;20225;-67
2023/03/20 11:16:26;;;;;;;6.47;3.72;;;22.00;65.20;;;;;;5073710;28;20581;-67
2023/03/20 11:19:14;;;;;;;5.82;3.80;;;22.00;65.40;;;;;;5070107;28;20196;-67
2023/03/20 11:22:08;;;;;;;5.32;3.60;;;21.90;65.50;;;;;;5072977;28;20216;-68
2023/03/20 11:25:00;;;;;;;4.97;3.13;;;21.90;65.30;;;;;;5072190;28;20193;-67
2023/03/20 11:27:50;;;;;;;6.47;3.20;;;21.80;65.60;;;;;;5065428;28;20197;-68
2023/03/20 11:30:40;;;;;;;18.23;4.30;;;21.80;65.80;;;;;;5069217;28;20228;-67
2023/03/20 11:33:46;;;;;;;14.15;4.70;;;21.70;65.70;;;;;;5073364;28;20224;-68
2023/03/20 11:36:36;;;;;;;10.05;3.40;;;21.70;65.90;;;;;;5072916;28;20775;-67
2023/03/20 11:39:26;;;;;;;8.20;3.13;;;21.70;66.00;;;;;;5068205;28;20218;-67
2023/03/20 11:42:24;;;;;;;4.57;3.17;;;21.70;65.30;;;;;;5061912;28;20232;-67
2023/03/20 11:45:17;;;;;;;4.35;3.35;;;21.80;65.80;;;;;;5067911;28;20201;-67
2023/03/20 11:48:06;;;;;;;6.45;3.28;;;21.80;65.70;;;;;;5061237;28;20634;-67
2023/03/20 11:51:00;;;;;;;3.25;2.55;;;21.80;65.50;;;;;;5065028;28;20216;-67
2023/03/20 11:54:00;;;;;;;5.57;2.50;;;21.90;65.50;;;;;;5072315;28;20280;-68
2023/03/20 11:56:53;;;;;;;3.90;2.70;;;21.90;65.60;;;;;;5073658;28;20189;-68
2023/03/20 11:59:41;;;;;;;3.75;2.50;;;21.90;65.40;;;;;;5094126;28;20205;-68
2023/03/20 12:02:31;;;;;;;6.20;2.92;;;21.90;65.50;;;;;;5091225;28;20181;-69
2023/03/20 12:05:28;;;;;;;4.07;2.75;;;21.90;65.30;;;;;;5085471;28;20203;-69
2023/03/20 12:08:22;;;;;;;5.05;3.47;;;21.90;65.30;;;;;;5065213;28;20196;-67
2023/03/20 12:11:24;;;;;;;7.85;3.38;;;21.90;65.20;;;;;;5064175;28;20275;-67
2023/03/20 12:14:20;;;;;;;7.95;4.35;;;21.90;65.30;;;;;;5063003;28;20278;-68
2023/03/20 12:17:32;;;;;;;8.32;3.42;;;21.90;65.20;;;;;;5053502;28;20301;-69
2023/03/20 12:20:28;;;;;;;10.68;4.68;;;21.90;65.00;;;;;;5043257;28;20315;-68
2023/03/20 12:23:23;;;;;;;4.78;3.88;;;21.80;65.00;;;;;;5052088;28;20272;-68
2023/03/20 12:26:14;;;;;;;4.95;2.95;;;21.80;65.50;;;;;;5055793;28;20280;-68
2023/03/20 12:29:09;;;;;;;6.15;4.32;;;21.80;65.50;;;;;;5064318;28;20197;-68
2023/03/20 12:32:03;;;;;;;8.95;4.55;;;21.80;65.50;;;;;;5066747;28;20262;-68
2023/03/20 12:34:56;;;;;;;6.72;3.55;;;21.80;65.40;;;;;;5070673;28;20240;-68
2023/03/20 12:37:44;;;;;;;6.78;3.75;;;21.70;65.70;;;;;;5071465;28;20275;-68
2023/03/20 12:40:42;;;;;;;8.32;3.90;;;21.80;65.50;;;;;;5070981;28;20219;-67
2023/03/20 12:43:40;;;;;;;3.78;3.00;;;21.80;65.50;;;;;;5074316;28;20742;-68
2023/03/20 12:46:37;;;;;;;5.15;3.55;;;21.90;65.50;;;;;;5075219;28;20221;-68
2023/03/20 12:49:38;;;;;;;5.15;3.92;;;21.90;65.40;;;;;;5075109;28;20197;-68
2023/03/20 12:52:40;;;;;;;6.20;4.45;;;22.00;65.20;;;;;;5075319;28;20284;-68
2023/03/20 12:55:44;;;;;;;6.55;4.68;;;22.00;65.20;;;;;;5074105;28;20219;-68
2023/03/20 12:58:40;;;;;;;5.57;3.60;;;22.00;64.90;;;;;;5055031;28;20225;-68
2023/03/20 13:01:32;;;;;;;9.13;4.25;;;22.00;65.00;;;;;;5062062;28;20217;-67
2023/03/20 13:04:43;;;;;;;8.35;3.83;;;22.10;65.00;;;;;;5067176;28;20693;-68
2023/03/20 13:07:45;;;;;;;4.07;3.67;;;22.10;65.00;;;;;;5072367;28;20618;-68
2023/03/20 13:10:37;;;;;;;8.60;4.15;;;22.10;64.70;;;;;;5070931;28;20227;-68
2023/03/20 13:13:33;;;;;;;5.47;3.70;;;22.10;64.60;;;;;;5075730;28;20681;-69
2023/03/20 13:16:32;;;;;;;8.60;5.72;;;22.20;64.70;;;;;;5074997;28;20243;-68
2023/03/20 13:19:28;;;;;;;7.80;3.28;;;22.20;64.70;;;;;;5075427;28;20335;-68
2023/03/20 13:22:21;;;;;;;10.05;3.72;;;22.00;64.40;;;;;;5074629;28;20221;-68
2023/03/20 13:25:25;;;;;;;7.47;4.80;;;22.10;64.70;;;;;;5074073;28;20276;-68
2023/03/20 13:28:24;;;;;;;6.65;4.72;;;22.10;64.50;;;;;;5057401;28;20298;-68
2023/03/20 13:31:28;;;;;;;6.97;4.72;;;22.10;64.70;;;;;;5073690;28;20303;-68
2023/03/20 13:34:28;;;;;;;5.28;3.22;;;22.10;64.60;;;;;;5066195;28;20201;-68
2023/03/20 13:37:21;;;;;;;8.75;4.88;;;22.00;64.80;;;;;;5055122;28;20197;-68
2023/03/20 13:40:16;;;;;;;6.22;4.40;;;22.10;80.80;;;;;;5053796;28;20200;-67
2023/03/20 13:43:18;;;;;;;8.18;4.82;;;21.90;65.20;;;;;;5053680;28;20280;-68
2023/03/20 13:46:10;;;;;;;5.93;4.30;;;21.90;65.10;;;;;;5053194;28;20236;-67
2023/03/20 13:49:05;;;;;;;11.40;5.30;;;21.90;65.20;;;;;;5054479;28;20198;-67
2023/03/20 13:52:00;;;;;;;7.22;4.63;;;21.80;65.20;;;;;;5053776;28;20581;-67
2023/03/20 13:55:10;;;;;;;7.10;4.60;;;21.80;65.20;;;;;;5054274;28;20249;-67
2023/03/20 13:58:17;;;;;;;6.85;4.57;;;21.70;65.00;;;;;;5066522;28;20559;-67
2023/03/20 14:01:11;;;;;;;5.78;3.42;;;21.70;64.80;;;;;;5072934;28;20338;-67
2023/03/20 14:04:00;;;;;;;5.45;3.88;;;21.70;65.40;;;;;;5071883;28;20239;-68
2023/03/20 14:06:54;;;;;;;8.13;5.75;;;21.60;65.30;;;;;;5071897;28;20201;-67
2023/03/20 14:09:42;;;;;;;7.47;5.53;;;21.60;65.40;;;;;;5072982;28;20215;-67
2023/03/20 14:12:32;;;;;;;7.97;5.10;;;21.60;65.50;;;;;;5074035;28;20234;-67
2023/03/20 14:15:24;;;;;;;7.32;5.43;;;21.50;65.50;;;;;;5066198;28;20339;-67
2023/03/20 14:18:17;;;;;;;7.57;4.43;;;21.50;65.50;;;;;;5074813;28;20303;-67
2023/03/20 14:21:12;;;;;;;21.80;6.55;;;21.50;65.70;;;;;;5073801;28;20216;-67
2023/03/20 14:24:03;;;;;;;29.60;6.28;;;21.40;65.70;;;;;;5072611;28;20288;-68
2023/03/20 14:26:56;;;;;;;13.07;5.43;;;21.40;66.10;;;;;;5072431;28;20336;-67
2023/03/20 14:29:44;;;;;;;5.53;4.22;;;21.40;66.10;;;;;;5072834;28;20203;-67
2023/03/20 14:32:35;;;;;;;7.10;5.28;;;21.40;66.10;;;;;;5072733;28;20251;-67
2023/03/20 14:35:26;;;;;;;7.95;4.88;;;21.30;66.10;;;;;;5072427;28;20583;-67
2023/03/20 14:38:25;;;;;;;11.75;8.25;;;21.30;66.10;;;;;;5072535;28;20201;-67
2023/03/20 14:41:19;;;;;;;11.77;6.60;;;21.20;66.20;;;;;;5071424;28;20350;-67
2023/03/20 14:44:22;;;;;;;12.70;6.40;;;21.20;66.40;;;;;;5072700;28;20274;-67
2023/03/20 14:47:22;;;;;;;7.50;5.22;;;21.10;66.50;;;;;;5072189;28;20317;-67
2023/03/20 14:50:18;;;;;;;9.05;6.10;;;21.20;82.00;;;;;;5071075;28;20245;-67
2023/03/20 14:53:15;;;;;;;10.68;5.47;;;21.00;66.60;;;;;;5071668;28;20208;-68
2023/03/20 14:56:09;;;;;;;8.45;5.93;;;21.00;66.80;;;;;;5071943;28;20268;-67